createdAt,value
2022-10-01T00:02:49.410Z,60.35
2022-10-01T00:07:57.811Z,60.53
2022-10-01T00:18:47.139Z,60.73
2022-10-01T00:24:02.022Z,61.79
2022-10-01T00:29:15.941Z,61.43
2022-10-01T00:34:22.786Z,61.44
2022-10-01T00:39:29.910Z,61.63
2022-10-01T00:44:40.258Z,61.62
2022-10-01T00:49:48.673Z,61.63
2022-10-01T00:55:24.562Z,61.92
2022-10-01T01:05:22.845Z,61.88
2022-10-01T01:11:03.316Z,63.03
2022-10-01T01:16:47.190Z,62.92
2022-10-01T01:22:01.171Z,62.79
2022-10-01T01:27:44.499Z,63.54
2022-10-01T01:33:16.881Z,62.85
2022-10-01T01:38:38.633Z,64.25
2022-10-01T01:43:45.823Z,62.66
2022-10-01T01:49:01.149Z,62.87
2022-10-01T01:54:19.477Z,62.78
2022-10-01T01:59:27.794Z,63.36
2022-10-01T02:04:50.190Z,63.27
2022-10-01T02:10:57.821Z,64.04
2022-10-01T02:16:14.909Z,62.98
2022-10-01T02:27:36.787Z,63.85
2022-10-01T02:32:49.720Z,63.60
2022-10-01T02:43:53.990Z,63.05
2022-10-01T02:49:07.185Z,63.99
2022-10-01T02:54:38.416Z,64.28
2022-10-01T03:05:07.156Z,63.24
2022-10-01T03:10:16.233Z,62.91
2022-10-01T03:15:20.936Z,62.69
2022-10-01T03:20:24.837Z,62.64
2022-10-01T03:25:26.735Z,62.54
2022-10-01T03:30:33.273Z,63.10
2022-10-01T03:35:35.179Z,62.34
2022-10-01T03:40:39.078Z,63.29
2022-10-01T03:45:41.012Z,61.78
2022-10-01T03:50:56.237Z,62.09
2022-10-01T03:55:59.420Z,61.69
2022-10-01T04:01:01.813Z,60.97
2022-10-01T04:06:04.002Z,60.83
2022-10-01T04:11:06.509Z,59.75
2022-10-01T04:16:08.314Z,59.15
2022-10-01T04:21:10.252Z,59.17
2022-10-01T04:26:12.225Z,58.74
2022-10-01T04:31:27.184Z,57.46
2022-10-01T04:36:29.324Z,57.95
2022-10-01T04:41:32.118Z,57.38
2022-10-01T04:46:34.198Z,57.77
2022-10-01T04:51:36.328Z,56.55
2022-10-01T04:56:41.414Z,57.77
2022-10-01T05:01:43.425Z,57.34
2022-10-01T05:06:45.421Z,57.09
2022-10-01T05:11:47.290Z,57.16
2022-10-01T05:16:49.135Z,56.59
2022-10-01T05:21:52.020Z,56.34
2022-10-01T05:26:54.374Z,56.28
2022-10-01T05:31:56.521Z,55.59
2022-10-01T05:36:58.565Z,55.61
2022-10-01T05:42:06.135Z,53.86
2022-10-01T05:47:08.559Z,55.04
2022-10-01T05:52:11.028Z,55.31
2022-10-01T05:57:13.251Z,54.57
2022-10-01T06:02:15.430Z,54.31
2022-10-01T06:07:17.340Z,53.34
2022-10-01T06:12:20.018Z,54.24
2022-10-01T06:17:22.005Z,54.23
2022-10-01T06:22:24.008Z,53.95
2022-10-01T06:27:26.156Z,54.03
2022-10-01T06:32:31.590Z,53.38
2022-10-01T06:37:39.420Z,53.36
2022-10-01T06:42:47.879Z,53.25
2022-10-01T06:48:03.118Z,52.56
2022-10-01T06:53:05.059Z,52.28
2022-10-01T06:58:22.337Z,49.78
2022-10-01T07:03:24.687Z,50.22
2022-10-01T07:08:26.701Z,48.46
2022-10-01T07:13:28.761Z,47.23
2022-10-01T07:18:30.469Z,43.44
2022-10-01T07:23:32.568Z,45.55
2022-10-01T07:28:34.748Z,44.61
2022-10-01T07:33:36.792Z,43.60
2022-10-01T07:38:38.817Z,43.30
2022-10-01T07:43:42.486Z,42.57
2022-10-01T07:48:46.683Z,41.88
2022-10-01T07:53:50.956Z,41.78
2022-10-01T07:58:57.151Z,39.78
2022-10-01T08:03:59.253Z,41.00
2022-10-01T08:09:01.476Z,40.79
2022-10-01T08:14:04.883Z,40.77
2022-10-01T08:19:09.920Z,40.71
2022-10-01T08:24:11.871Z,40.55
2022-10-01T08:29:17.058Z,40.16
2022-10-01T08:34:19.295Z,40.18
2022-10-01T08:39:21.321Z,39.59
2022-10-01T08:44:30.337Z,38.61
2022-10-01T08:49:43.848Z,37.48
2022-10-01T08:55:03.686Z,38.78
2022-10-01T09:06:18.491Z,36.75
2022-10-01T09:11:41.121Z,36.58
2022-10-01T09:16:50.148Z,37.01
2022-10-01T09:28:06.489Z,37.25
2022-10-01T09:33:17.527Z,37.08
2022-10-01T09:38:46.175Z,36.43
2022-10-01T09:43:48.906Z,37.75
2022-10-01T09:49:05.763Z,35.43
2022-10-01T09:54:43.341Z,36.07
2022-10-01T10:00:05.320Z,35.66
2022-10-01T10:05:16.043Z,35.90
2022-10-01T10:10:28.566Z,35.61
2022-10-01T10:15:32.649Z,37.03
2022-10-01T10:20:42.009Z,36.07
2022-10-01T10:25:44.365Z,36.86
2022-10-01T10:30:47.625Z,36.74
2022-10-01T10:36:09.140Z,36.11
2022-10-01T10:41:16.461Z,35.40
2022-10-01T11:18:28.986Z,33.68
2022-10-01T11:24:08.150Z,35.04
2022-10-01T11:29:23.756Z,35.37
2022-10-01T11:34:59.925Z,34.70
2022-10-01T11:40:21.217Z,36.50
2022-10-01T11:45:40.612Z,38.88
2022-10-01T11:50:49.187Z,38.47
2022-10-01T11:56:41.616Z,36.51
2022-10-01T12:02:08.836Z,36.20
2022-10-01T12:07:46.419Z,36.54
2022-10-01T12:13:27.341Z,36.44
2022-10-01T12:18:44.555Z,37.78
2022-10-01T12:24:29.744Z,35.96
2022-10-01T12:29:50.029Z,36.33
2022-10-01T12:35:23.059Z,36.15
2022-10-01T12:40:34.428Z,38.18
2022-10-01T12:46:09.847Z,38.13
2022-10-01T12:51:53.294Z,39.67
2022-10-01T12:57:14.706Z,40.85
2022-10-01T13:02:53.263Z,40.95
2022-10-01T13:08:16.843Z,40.36
2022-10-01T13:18:57.072Z,40.65
2022-10-01T13:24:35.805Z,39.89
2022-10-01T13:30:07.909Z,41.22
2022-10-01T13:35:40.482Z,41.26
2022-10-01T13:40:45.059Z,41.93
2022-10-01T13:45:51.858Z,41.36
2022-10-01T13:51:12.953Z,41.06
2022-10-01T13:56:42.426Z,40.97
2022-10-01T14:01:44.742Z,41.36
2022-10-01T14:07:27.864Z,40.98
2022-10-01T14:12:51.458Z,40.26
2022-10-01T14:18:19.716Z,40.19
2022-10-01T14:23:58.084Z,39.03
2022-10-01T14:29:22.632Z,39.37
2022-10-01T14:35:05.213Z,39.84
2022-10-01T14:40:24.616Z,40.99
2022-10-01T14:45:28.121Z,41.24
2022-10-01T14:50:40.160Z,42.18
2022-10-01T14:55:44.003Z,43.69
2022-10-01T15:00:52.128Z,44.58
2022-10-01T15:06:10.846Z,45.18
2022-10-01T15:11:22.882Z,44.96
2022-10-01T15:16:30.646Z,44.91
2022-10-01T15:21:41.747Z,45.89
2022-10-01T15:26:49.617Z,46.09
2022-10-01T15:32:22.495Z,45.94
2022-10-01T15:37:31.448Z,46.49
2022-10-01T15:42:40.789Z,46.74
2022-10-01T15:47:57.289Z,47.53
2022-10-01T15:53:30.689Z,47.98
2022-10-01T15:58:44.453Z,48.21
2022-10-01T16:04:13.578Z,48.89
2022-10-01T16:09:20.016Z,47.87
2022-10-01T16:14:28.231Z,47.87
2022-10-01T16:19:32.371Z,47.88
2022-10-01T16:24:45.468Z,48.19
2022-10-01T16:30:06.551Z,48.48
2022-10-01T16:35:24.196Z,48.95
2022-10-01T16:40:29.701Z,48.64
2022-10-01T16:45:41.084Z,50.23
2022-10-01T16:50:58.227Z,49.44
2022-10-01T16:56:00.511Z,49.98
2022-10-01T17:01:17.152Z,51.06
2022-10-01T17:06:21.933Z,51.53
2022-10-01T17:11:27.254Z,51.75
2022-10-01T17:16:42.271Z,51.80
2022-10-01T17:22:15.865Z,52.19
2022-10-01T17:27:28.150Z,53.44
2022-10-01T17:32:35.931Z,53.21
2022-10-01T17:37:38.682Z,53.53
2022-10-01T17:48:21.873Z,55.75
2022-10-01T17:53:34.957Z,54.37
2022-10-01T17:58:45.723Z,54.33
2022-10-01T18:04:01.735Z,54.42
2022-10-01T18:09:06.902Z,54.75
2022-10-01T18:14:10.311Z,54.56
2022-10-01T18:25:11.320Z,54.88
2022-10-01T18:30:21.090Z,55.23
2022-10-01T18:35:34.696Z,55.98
2022-10-01T18:47:37.339Z,56.39
2022-10-01T18:53:15.205Z,56.40
2022-10-01T18:58:29.284Z,55.70
2022-10-01T19:04:21.341Z,56.87
2022-10-01T19:10:06.267Z,56.78
2022-10-01T19:15:26.079Z,56.87
2022-10-01T19:21:10.755Z,56.75
2022-10-01T19:27:04.348Z,56.84
2022-10-01T19:32:30.325Z,56.63
2022-10-01T19:37:52.502Z,56.33
2022-10-01T19:43:16.270Z,56.12
2022-10-01T19:48:42.225Z,55.71
2022-10-01T19:53:47.862Z,55.55
2022-10-01T19:58:51.268Z,55.24
2022-10-01T20:04:09.014Z,55.49
2022-10-01T20:09:28.649Z,55.15
2022-10-01T20:15:11.897Z,55.38
2022-10-01T20:26:21.511Z,55.59
2022-10-01T20:31:42.557Z,54.73
2022-10-01T20:37:12.857Z,54.22
2022-10-01T20:42:57.752Z,54.06
2022-10-01T20:48:13.762Z,54.44
2022-10-01T20:53:42.392Z,54.40
2022-10-01T20:59:47.469Z,54.86
2022-10-01T21:05:12.915Z,55.35
2022-10-01T21:10:48.738Z,55.56
2022-10-01T21:16:41.889Z,55.07
2022-10-01T21:21:57.878Z,54.92
2022-10-01T21:27:09.453Z,55.45
2022-10-01T21:33:08.700Z,55.71
2022-10-01T21:38:32.052Z,55.68
2022-10-01T21:43:42.722Z,55.24
2022-10-01T21:49:12.935Z,56.19
2022-10-01T21:54:34.988Z,56.13
2022-10-01T22:00:33.298Z,56.61
2022-10-01T22:06:02.585Z,56.80
2022-10-01T22:11:23.390Z,57.06
2022-10-01T22:16:34.981Z,56.79
2022-10-01T22:21:47.429Z,56.68
2022-10-01T22:26:54.875Z,57.00
2022-10-01T22:32:04.534Z,57.39
2022-10-01T22:37:31.074Z,57.54
2022-10-01T22:43:10.391Z,57.55
2022-10-01T22:48:38.191Z,57.45
2022-10-01T22:54:23.661Z,58.41
2022-10-01T22:59:39.766Z,58.16
2022-10-01T23:05:14.291Z,58.27
2022-10-01T23:10:32.476Z,57.94
2022-10-01T23:15:58.489Z,58.46
2022-10-01T23:27:24.357Z,58.95
2022-10-01T23:32:56.413Z,58.21
2022-10-01T23:38:18.384Z,58.05
2022-10-01T23:43:48.853Z,59.37
2022-10-01T23:49:21.239Z,59.60
2022-10-01T23:54:31.970Z,59.35
2022-10-01T23:59:58.819Z,60.07
